sensor_id;sensor_type;location;lat;lon;timestamp;pressure;altitude;pressure_sealevel;temperature;humidity
56160;BME280;42043;46.052;13.612;2022-07-05T00:01:54;100298.75;;;24.47;89.01
56160;BME280;42043;46.052;13.612;2022-07-05T00:04:20;100290.38;;;24.33;90.96
56160;BME280;42043;46.052;13.612;2022-07-05T00:06:46;100286.28;;;24.82;87.11
56160;BME280;42043;46.052;13.612;2022-07-05T00:09:31;100278.69;;;24.02;92.03
56160;BME280;42043;46.052;13.612;2022-07-05T00:11:57;100280.06;;;24.04;92.31
56160;BME280;42043;46.052;13.612;2022-07-05T00:14:23;100286.31;;;24.56;88.25
56160;BME280;42043;46.052;13.612;2022-07-05T00:16:50;100293.06;;;24.69;86.53
56160;BME280;42043;46.052;13.612;2022-07-05T00:19:16;100297.66;;;24.43;88.72
56160;BME280;42043;46.052;13.612;2022-07-05T00:21:42;100294.38;;;24.92;86.43
56160;BME280;42043;46.052;13.612;2022-07-05T00:24:08;100274.53;;;25.22;83.90
56160;BME280;42043;46.052;13.612;2022-07-05T00:26:34;100281.38;;;24.94;85.78
56160;BME280;42043;46.052;13.612;2022-07-05T00:29:01;100278.97;;;24.77;85.84
56160;BME280;42043;46.052;13.612;2022-07-05T00:31:27;100277.13;;;24.52;85.83
56160;BME280;42043;46.052;13.612;2022-07-05T00:33:53;100290.91;;;24.20;88.03
56160;BME280;42043;46.052;13.612;2022-07-05T00:36:19;100303.84;;;23.97;90.85
56160;BME280;42043;46.052;13.612;2022-07-05T00:38:46;100315.78;;;24.32;87.72
56160;BME280;42043;46.052;13.612;2022-07-05T00:41:12;100320.91;;;24.13;92.71
56160;BME280;42043;46.052;13.612;2022-07-05T00:43:55;100326.78;;;23.74;93.67
56160;BME280;42043;46.052;13.612;2022-07-05T00:46:22;100350.00;;;23.75;93.84
56160;BME280;42043;46.052;13.612;2022-07-05T00:48:48;100347.97;;;24.28;90.83
56160;BME280;42043;46.052;13.612;2022-07-05T00:51:14;100353.03;;;23.89;92.43
56160;BME280;42043;46.052;13.612;2022-07-05T00:53:41;100354.44;;;24.27;89.09
56160;BME280;42043;46.052;13.612;2022-07-05T00:56:10;100351.25;;;24.71;87.72
56160;BME280;42043;46.052;13.612;2022-07-05T00:58:36;100357.69;;;24.45;91.05
56160;BME280;42043;46.052;13.612;2022-07-05T01:01:05;100369.25;;;23.94;95.85
56160;BME280;42043;46.052;13.612;2022-07-05T01:03:32;100370.69;;;23.54;100.00
56160;BME280;42043;46.052;13.612;2022-07-05T01:05:59;100360.09;;;23.42;100.00
56160;BME280;42043;46.052;13.612;2022-07-05T01:08:27;100355.03;;;23.03;100.00
56160;BME280;42043;46.052;13.612;2022-07-05T01:10:57;100342.13;;;22.78;100.00
56160;BME280;42043;46.052;13.612;2022-07-05T01:13:24;100348.69;;;23.30;100.00
56160;BME280;42043;46.052;13.612;2022-07-05T01:15:51;100348.41;;;23.27;100.00
56160;BME280;42043;46.052;13.612;2022-07-05T01:18:19;100338.16;;;23.34;100.00
56160;BME280;42043;46.052;13.612;2022-07-05T01:20:49;100338.09;;;23.13;100.00
56160;BME280;42043;46.052;13.612;2022-07-05T01:23:17;100337.84;;;23.20;100.00
56160;BME280;42043;46.052;13.612;2022-07-05T01:25:48;100331.53;;;23.57;100.00
56160;BME280;42043;46.052;13.612;2022-07-05T01:28:15;100323.72;;;23.65;100.00
56160;BME280;42043;46.052;13.612;2022-07-05T01:30:42;100327.09;;;24.14;100.00
56160;BME280;42043;46.052;13.612;2022-07-05T01:33:09;100323.97;;;23.59;100.00
56160;BME280;42043;46.052;13.612;2022-07-05T01:35:35;100328.63;;;23.74;100.00
56160;BME280;42043;46.052;13.612;2022-07-05T01:38:01;100328.31;;;23.65;100.00
56160;BME280;42043;46.052;13.612;2022-07-05T01:40:27;100323.41;;;23.52;100.00
56160;BME280;42043;46.052;13.612;2022-07-05T01:42:54;100327.78;;;23.68;100.00
56160;BME280;42043;46.052;13.612;2022-07-05T01:45:20;100338.88;;;23.14;100.00
56160;BME280;42043;46.052;13.612;2022-07-05T01:48:10;100329.88;;;22.28;100.00
56160;BME280;42043;46.052;13.612;2022-07-05T01:50:57;100326.53;;;22.86;100.00
56160;BME280;42043;46.052;13.612;2022-07-05T01:53:29;100325.63;;;23.12;100.00
56160;BME280;42043;46.052;13.612;2022-07-05T01:55:57;100329.63;;;23.52;100.00
56160;BME280;42043;46.052;13.612;2022-07-05T01:58:24;100349.00;;;22.96;100.00
56160;BME280;42043;46.052;13.612;2022-07-05T02:00:52;100333.44;;;23.66;100.00
56160;BME280;42043;46.052;13.612;2022-07-05T02:03:19;100336.56;;;22.58;100.00
56160;BME280;42043;46.052;13.612;2022-07-05T02:05:45;100333.53;;;23.24;100.00
56160;BME280;42043;46.052;13.612;2022-07-05T02:08:13;100330.41;;;23.53;100.00
56160;BME280;42043;46.052;13.612;2022-07-05T02:10:40;100337.53;;;22.79;100.00
56160;BME280;42043;46.052;13.612;2022-07-05T02:13:06;100337.94;;;23.40;100.00
56160;BME280;42043;46.052;13.612;2022-07-05T02:15:34;100347.53;;;23.16;100.00
56160;BME280;42043;46.052;13.612;2022-07-05T02:18:02;100344.88;;;22.83;100.00
56160;BME280;42043;46.052;13.612;2022-07-05T02:20:29;100347.38;;;22.95;100.00
56160;BME280;42043;46.052;13.612;2022-07-05T02:22:56;100354.91;;;22.93;100.00
56160;BME280;42043;46.052;13.612;2022-07-05T02:25:22;100343.94;;;22.68;100.00
56160;BME280;42043;46.052;13.612;2022-07-05T02:27:50;100351.38;;;23.25;100.00
56160;BME280;42043;46.052;13.612;2022-07-05T02:30:16;100349.13;;;23.12;100.00
56160;BME280;42043;46.052;13.612;2022-07-05T02:32:42;100351.81;;;22.74;100.00
56160;BME280;42043;46.052;13.612;2022-07-05T02:35:09;100345.81;;;22.67;100.00
56160;BME280;42043;46.052;13.612;2022-07-05T02:37:36;100356.25;;;22.91;100.00
56160;BME280;42043;46.052;13.612;2022-07-05T02:40:03;100355.72;;;22.56;100.00
56160;BME280;42043;46.052;13.612;2022-07-05T02:42:30;100344.88;;;22.83;100.00
56160;BME280;42043;46.052;13.612;2022-07-05T02:44:56;100344.34;;;22.49;100.00
56160;BME280;42043;46.052;13.612;2022-07-05T02:47:22;100348.63;;;22.45;100.00
56160;BME280;42043;46.052;13.612;2022-07-05T02:49:48;100356.53;;;22.30;100.00
56160;BME280;42043;46.052;13.612;2022-07-05T02:52:14;100357.38;;;22.30;100.00
56160;BME280;42043;46.052;13.612;2022-07-05T02:54:40;100353.22;;;22.82;100.00
56160;BME280;42043;46.052;13.612;2022-07-05T02:57:06;100366.34;;;22.68;100.00
56160;BME280;42043;46.052;13.612;2022-07-05T02:59:32;100365.88;;;23.14;100.00
56160;BME280;42043;46.052;13.612;2022-07-05T03:01:59;100368.75;;;22.70;100.00
56160;BME280;42043;46.052;13.612;2022-07-05T03:04:25;100368.66;;;22.54;100.00
56160;BME280;42043;46.052;13.612;2022-07-05T03:06:51;100363.56;;;22.95;100.00
56160;BME280;42043;46.052;13.612;2022-07-05T03:09:17;100368.00;;;22.42;100.00
56160;BME280;42043;46.052;13.612;2022-07-05T03:11:43;100362.13;;;22.50;100.00
56160;BME280;42043;46.052;13.612;2022-07-05T03:14:09;100373.28;;;23.34;100.00
56160;BME280;42043;46.052;13.612;2022-07-05T03:16:35;100367.84;;;22.91;100.00
56160;BME280;42043;46.052;13.612;2022-07-05T03:19:01;100380.56;;;22.96;100.00
56160;BME280;42043;46.052;13.612;2022-07-05T03:21:27;100384.53;;;22.83;100.00
56160;BME280;42043;46.052;13.612;2022-07-05T03:23:53;100379.72;;;22.90;100.00
56160;BME280;42043;46.052;13.612;2022-07-05T03:26:19;100384.03;;;22.91;100.00
56160;BME280;42043;46.052;13.612;2022-07-05T03:28:46;100385.09;;;23.22;100.00
56160;BME280;42043;46.052;13.612;2022-07-05T03:31:12;100375.25;;;22.69;100.00
56160;BME280;42043;46.052;13.612;2022-07-05T03:33:38;100387.53;;;22.54;100.00
56160;BME280;42043;46.052;13.612;2022-07-05T03:36:04;100374.72;;;22.72;100.00
56160;BME280;42043;46.052;13.612;2022-07-05T03:38:30;100387.97;;;22.73;100.00
56160;BME280;42043;46.052;13.612;2022-07-05T03:40:56;100384.47;;;22.73;100.00
56160;BME280;42043;46.052;13.612;2022-07-05T03:43:22;100393.59;;;22.99;100.00
56160;BME280;42043;46.052;13.612;2022-07-05T03:45:48;100392.59;;;22.78;100.00
56160;BME280;42043;46.052;13.612;2022-07-05T03:48:14;100397.72;;;23.12;100.00
56160;BME280;42043;46.052;13.612;2022-07-05T03:50:40;100401.41;;;23.00;100.00
56160;BME280;42043;46.052;13.612;2022-07-05T03:53:06;100400.03;;;22.66;100.00
56160;BME280;42043;46.052;13.612;2022-07-05T03:55:32;100396.91;;;23.11;100.00
56160;BME280;42043;46.052;13.612;2022-07-05T03:57:58;100401.81;;;22.82;100.00
56160;BME280;42043;46.052;13.612;2022-07-05T04:00:24;100415.06;;;23.21;100.00
56160;BME280;42043;46.052;13.612;2022-07-05T04:02:50;100419.09;;;22.54;100.00
56160;BME280;42043;46.052;13.612;2022-07-05T04:05:16;100415.81;;;23.11;100.00
56160;BME280;42043;46.052;13.612;2022-07-05T04:07:54;100418.19;;;23.08;100.00
56160;BME280;42043;46.052;13.612;2022-07-05T04:10:21;100418.25;;;23.13;100.00
56160;BME280;42043;46.052;13.612;2022-07-05T04:12:47;100425.31;;;22.59;100.00
56160;BME280;42043;46.052;13.612;2022-07-05T04:15:14;100425.38;;;22.65;100.00
56160;BME280;42043;46.052;13.612;2022-07-05T04:17:53;100439.56;;;22.55;100.00
56160;BME280;42043;46.052;13.612;2022-07-05T04:20:21;100429.78;;;22.76;100.00
56160;BME280;42043;46.052;13.612;2022-07-05T04:22:50;100439.94;;;22.96;100.00
56160;BME280;42043;46.052;13.612;2022-07-05T04:25:17;100437.03;;;22.70;100.00
56160;BME280;42043;46.052;13.612;2022-07-05T04:27:45;100425.81;;;22.83;100.00
56160;BME280;42043;46.052;13.612;2022-07-05T04:30:11;100440.97;;;22.90;100.00
56160;BME280;42043;46.052;13.612;2022-07-05T04:32:37;100448.47;;;22.55;100.00
56160;BME280;42043;46.052;13.612;2022-07-05T04:35:04;100453.91;;;22.88;100.00
56160;BME280;42043;46.052;13.612;2022-07-05T04:37:30;100451.00;;;22.67;100.00
56160;BME280;42043;46.052;13.612;2022-07-05T04:39:56;100456.53;;;23.10;100.00
56160;BME280;42043;46.052;13.612;2022-07-05T04:42:22;100462.00;;;22.88;100.00
56160;BME280;42043;46.052;13.612;2022-07-05T04:44:48;100452.97;;;22.99;100.00
56160;BME280;42043;46.052;13.612;2022-07-05T04:47:14;100454.34;;;23.39;100.00
56160;BME280;42043;46.052;13.612;2022-07-05T04:49:40;100451.38;;;23.45;100.00
56160;BME280;42043;46.052;13.612;2022-07-05T04:52:06;100455.47;;;23.11;100.00
56160;BME280;42043;46.052;13.612;2022-07-05T04:54:32;100460.16;;;23.25;100.00
56160;BME280;42043;46.052;13.612;2022-07-05T04:56:58;100449.41;;;23.31;100.00
56160;BME280;42043;46.052;13.612;2022-07-05T04:59:24;100452.41;;;23.34;100.00
56160;BME280;42043;46.052;13.612;2022-07-05T05:01:50;100451.13;;;23.10;100.00
56160;BME280;42043;46.052;13.612;2022-07-05T05:04:16;100454.91;;;23.09;100.00
56160;BME280;42043;46.052;13.612;2022-07-05T05:06:43;100448.63;;;23.35;97.53
56160;BME280;42043;46.052;13.612;2022-07-05T05:09:09;100449.22;;;23.48;96.94
56160;BME280;42043;46.052;13.612;2022-07-05T05:11:35;100444.06;;;23.83;94.46
56160;BME280;42043;46.052;13.612;2022-07-05T05:14:01;100448.38;;;23.79;96.98
56160;BME280;42043;46.052;13.612;2022-07-05T05:16:27;100452.00;;;24.05;92.80
56160;BME280;42043;46.052;13.612;2022-07-05T05:18:53;100448.03;;;24.34;91.48
56160;BME280;42043;46.052;13.612;2022-07-05T05:21:19;100452.22;;;23.88;91.67
56160;BME280;42043;46.052;13.612;2022-07-05T05:23:45;100437.59;;;23.90;92.42
56160;BME280;42043;46.052;13.612;2022-07-05T05:26:11;100433.94;;;24.21;90.00
56160;BME280;42043;46.052;13.612;2022-07-05T05:28:37;100436.88;;;24.09;89.35
56160;BME280;42043;46.052;13.612;2022-07-05T05:31:05;100432.84;;;24.17;89.09
56160;BME280;42043;46.052;13.612;2022-07-05T05:33:31;100439.38;;;24.42;86.09
56160;BME280;42043;46.052;13.612;2022-07-05T05:35:57;100440.97;;;24.33;86.24
56160;BME280;42043;46.052;13.612;2022-07-05T05:38:23;100440.19;;;24.32;86.25
56160;BME280;42043;46.052;13.612;2022-07-05T05:40:49;100435.84;;;24.31;85.61
56160;BME280;42043;46.052;13.612;2022-07-05T05:43:15;100436.75;;;24.57;83.09
56160;BME280;42043;46.052;13.612;2022-07-05T05:45:41;100424.84;;;24.63;83.15
56160;BME280;42043;46.052;13.612;2022-07-05T05:48:07;100426.44;;;24.54;85.06
56160;BME280;42043;46.052;13.612;2022-07-05T05:50:34;100430.78;;;24.76;83.86
56160;BME280;42043;46.052;13.612;2022-07-05T05:53:02;100435.41;;;24.90;82.44
56160;BME280;42043;46.052;13.612;2022-07-05T05:55:30;100434.06;;;24.83;81.92
56160;BME280;42043;46.052;13.612;2022-07-05T05:57:56;100438.13;;;24.96;79.36
56160;BME280;42043;46.052;13.612;2022-07-05T06:00:24;100430.25;;;25.14;80.29
56160;BME280;42043;46.052;13.612;2022-07-05T06:02:50;100443.81;;;25.04;81.14
56160;BME280;42043;46.052;13.612;2022-07-05T06:05:17;100428.63;;;25.03;78.76
56160;BME280;42043;46.052;13.612;2022-07-05T06:07:51;100428.09;;;24.86;78.87
56160;BME280;42043;46.052;13.612;2022-07-05T06:10:28;100429.44;;;25.04;80.01
56160;BME280;42043;46.052;13.612;2022-07-05T06:12:56;100422.94;;;25.30;77.79
56160;BME280;42043;46.052;13.612;2022-07-05T06:15:22;100425.38;;;25.32;78.48
56160;BME280;42043;46.052;13.612;2022-07-05T06:17:49;100423.19;;;25.34;77.45
56160;BME280;42043;46.052;13.612;2022-07-05T06:20:18;100426.69;;;25.50;75.37
56160;BME280;42043;46.052;13.612;2022-07-05T06:22:45;100429.66;;;25.59;75.68
56160;BME280;42043;46.052;13.612;2022-07-05T06:25:11;100419.38;;;25.45;76.05
56160;BME280;42043;46.052;13.612;2022-07-05T06:27:46;100426.41;;;25.56;77.08
56160;BME280;42043;46.052;13.612;2022-07-05T06:30:14;100426.09;;;25.68;74.82
56160;BME280;42043;46.052;13.612;2022-07-05T06:32:42;100417.91;;;25.78;75.29
56160;BME280;42043;46.052;13.612;2022-07-05T06:35:09;100417.34;;;25.92;73.88
56160;BME280;42043;46.052;13.612;2022-07-05T06:38:04;100420.59;;;25.89;75.23
56160;BME280;42043;46.052;13.612;2022-07-05T06:40:41;100413.66;;;26.27;73.76
56160;BME280;42043;46.052;13.612;2022-07-05T06:43:21;100414.38;;;26.38;73.85
56160;BME280;42043;46.052;13.612;2022-07-05T06:45:47;100412.25;;;26.35;72.59
56160;BME280;42043;46.052;13.612;2022-07-05T06:48:27;100416.72;;;26.05;72.39
56160;BME280;42043;46.052;13.612;2022-07-05T06:50:53;100410.06;;;25.87;73.61
56160;BME280;42043;46.052;13.612;2022-07-05T06:53:19;100404.88;;;25.91;73.83
56160;BME280;42043;46.052;13.612;2022-07-05T06:55:45;100408.41;;;26.41;72.73
56160;BME280;42043;46.052;13.612;2022-07-05T06:58:11;100402.44;;;26.78;71.30
56160;BME280;42043;46.052;13.612;2022-07-05T07:00:39;100405.50;;;26.72;68.04
56160;BME280;42043;46.052;13.612;2022-07-05T07:03:05;100400.19;;;26.86;67.60
56160;BME280;42043;46.052;13.612;2022-07-05T07:05:31;100396.19;;;27.07;67.18
56160;BME280;42043;46.052;13.612;2022-07-05T07:07:57;100402.63;;;27.16;66.47
56160;BME280;42043;46.052;13.612;2022-07-05T07:10:41;100393.00;;;27.00;65.78
56160;BME280;42043;46.052;13.612;2022-07-05T07:13:07;100389.84;;;27.22;63.82
56160;BME280;42043;46.052;13.612;2022-07-05T07:15:34;100388.34;;;27.35;63.37
56160;BME280;42043;46.052;13.612;2022-07-05T07:18:00;100384.38;;;27.70;62.52
56160;BME280;42043;46.052;13.612;2022-07-05T07:20:26;100387.88;;;27.52;62.79
56160;BME280;42043;46.052;13.612;2022-07-05T07:22:53;100392.69;;;27.60;61.70
56160;BME280;42043;46.052;13.612;2022-07-05T07:25:19;100385.75;;;27.49;60.61
56160;BME280;42043;46.052;13.612;2022-07-05T07:27:53;100383.41;;;27.85;61.75
56160;BME280;42043;46.052;13.612;2022-07-05T07:30:25;100379.34;;;27.82;60.80
56160;BME280;42043;46.052;13.612;2022-07-05T07:32:52;100371.59;;;28.14;60.42
56160;BME280;42043;46.052;13.612;2022-07-05T07:35:18;100371.88;;;28.31;59.63
56160;BME280;42043;46.052;13.612;2022-07-05T07:37:44;100372.63;;;28.18;60.61
56160;BME280;42043;46.052;13.612;2022-07-05T07:40:10;100368.41;;;28.63;58.95
56160;BME280;42043;46.052;13.612;2022-07-05T07:42:37;100360.81;;;28.60;55.27
56160;BME280;42043;46.052;13.612;2022-07-05T07:45:03;100369.97;;;28.83;55.86
56160;BME280;42043;46.052;13.612;2022-07-05T07:47:33;100364.44;;;29.02;59.11
56160;BME280;42043;46.052;13.612;2022-07-05T07:50:00;100361.06;;;29.10;55.65
56160;BME280;42043;46.052;13.612;2022-07-05T07:52:27;100373.28;;;29.13;54.87
56160;BME280;42043;46.052;13.612;2022-07-05T07:54:53;100365.47;;;29.06;54.67
56160;BME280;42043;46.052;13.612;2022-07-05T07:57:19;100371.25;;;29.32;54.48
56160;BME280;42043;46.052;13.612;2022-07-05T07:59:45;100370.25;;;29.56;52.25
56160;BME280;42043;46.052;13.612;2022-07-05T08:02:11;100373.19;;;29.46;50.39
56160;BME280;42043;46.052;13.612;2022-07-05T08:04:38;100377.63;;;29.28;50.86
56160;BME280;42043;46.052;13.612;2022-07-05T08:07:04;100374.31;;;29.72;49.50
56160;BME280;42043;46.052;13.612;2022-07-05T08:09:31;100376.38;;;29.89;49.97
56160;BME280;42043;46.052;13.612;2022-07-05T08:11:57;100380.94;;;30.16;49.04
56160;BME280;42043;46.052;13.612;2022-07-05T08:14:24;100387.78;;;30.42;49.40
56160;BME280;42043;46.052;13.612;2022-07-05T08:16:51;100383.84;;;29.97;48.45
56160;BME280;42043;46.052;13.612;2022-07-05T08:19:19;100386.47;;;30.39;47.56
56160;BME280;42043;46.052;13.612;2022-07-05T08:22:04;100386.66;;;30.88;45.23
56160;BME280;42043;46.052;13.612;2022-07-05T08:24:30;100385.22;;;30.68;43.74
56160;BME280;42043;46.052;13.612;2022-07-05T08:26:56;100380.22;;;30.84;45.03
56160;BME280;42043;46.052;13.612;2022-07-05T08:29:22;100384.16;;;31.09;44.59
56160;BME280;42043;46.052;13.612;2022-07-05T08:31:50;100385.25;;;30.99;43.54
56160;BME280;42043;46.052;13.612;2022-07-05T08:34:20;100379.84;;;31.08;42.37
56160;BME280;42043;46.052;13.612;2022-07-05T08:36:46;100386.13;;;31.48;42.01
56160;BME280;42043;46.052;13.612;2022-07-05T08:39:14;100380.66;;;31.48;42.75
56160;BME280;42043;46.052;13.612;2022-07-05T08:41:42;100380.22;;;31.72;40.70
56160;BME280;42043;46.052;13.612;2022-07-05T08:44:08;100366.19;;;31.48;40.58
56160;BME280;42043;46.052;13.612;2022-07-05T08:46:38;100379.63;;;31.75;40.81
56160;BME280;42043;46.052;13.612;2022-07-05T08:49:04;100380.94;;;32.21;40.01
56160;BME280;42043;46.052;13.612;2022-07-05T08:51:36;100378.06;;;32.18;41.25
56160;BME280;42043;46.052;13.612;2022-07-05T08:54:04;100372.72;;;32.47;39.59
56160;BME280;42043;46.052;13.612;2022-07-05T08:56:31;100379.34;;;32.38;40.62
56160;BME280;42043;46.052;13.612;2022-07-05T08:58:58;100373.41;;;33.09;40.09
56160;BME280;42043;46.052;13.612;2022-07-05T09:01:25;100376.19;;;33.00;39.24
56160;BME280;42043;46.052;13.612;2022-07-05T09:03:52;100377.34;;;32.82;39.68
56160;BME280;42043;46.052;13.612;2022-07-05T09:06:24;100381.03;;;33.33;37.87
56160;BME280;42043;46.052;13.612;2022-07-05T09:08:51;100374.06;;;32.97;36.92
56160;BME280;42043;46.052;13.612;2022-07-05T09:11:26;100366.47;;;32.30;39.12
56160;BME280;42043;46.052;13.612;2022-07-05T09:13:54;100354.66;;;32.73;38.15
56160;BME280;42043;46.052;13.612;2022-07-05T09:16:20;100366.28;;;33.46;37.04
56160;BME280;42043;46.052;13.612;2022-07-05T09:18:48;100366.69;;;32.89;37.10
56160;BME280;42043;46.052;13.612;2022-07-05T09:23:40;100352.69;;;33.29;36.50
56160;BME280;42043;46.052;13.612;2022-07-05T09:26:07;100357.97;;;33.34;37.16
56160;BME280;42043;46.052;13.612;2022-07-05T09:28:34;100348.84;;;33.51;35.69
56160;BME280;42043;46.052;13.612;2022-07-05T09:31:00;100353.22;;;33.73;36.04
56160;BME280;42043;46.052;13.612;2022-07-05T09:33:26;100350.84;;;33.03;35.75
56160;BME280;42043;46.052;13.612;2022-07-05T09:35:57;100341.09;;;33.23;36.21
56160;BME280;42043;46.052;13.612;2022-07-05T09:38:25;100345.94;;;33.77;34.68
56160;BME280;42043;46.052;13.612;2022-07-05T09:40:53;100342.63;;;33.92;35.47
56160;BME280;42043;46.052;13.612;2022-07-05T09:43:21;100359.69;;;34.19;33.41
56160;BME280;42043;46.052;13.612;2022-07-05T09:45:58;100344.63;;;34.58;35.33
56160;BME280;42043;46.052;13.612;2022-07-05T09:48:27;100351.97;;;34.33;34.53
56160;BME280;42043;46.052;13.612;2022-07-05T09:51:21;100355.94;;;34.24;34.88
56160;BME280;42043;46.052;13.612;2022-07-05T09:53:49;100353.69;;;34.38;34.01
56160;BME280;42043;46.052;13.612;2022-07-05T09:56:16;100349.69;;;34.35;33.82
56160;BME280;42043;46.052;13.612;2022-07-05T09:58:44;100345.63;;;34.54;34.35
56160;BME280;42043;46.052;13.612;2022-07-05T10:01:30;100347.78;;;34.15;35.25
56160;BME280;42043;46.052;13.612;2022-07-05T10:03:58;100346.69;;;34.62;33.25
56160;BME280;42043;46.052;13.612;2022-07-05T10:06:26;100340.94;;;34.54;33.97
56160;BME280;42043;46.052;13.612;2022-07-05T10:08:52;100346.75;;;34.98;32.83
56160;BME280;42043;46.052;13.612;2022-07-05T10:11:20;100342.72;;;34.84;34.07
56160;BME280;42043;46.052;13.612;2022-07-05T10:13:48;100338.63;;;35.27;32.44
56160;BME280;42043;46.052;13.612;2022-07-05T10:16:21;100342.00;;;34.08;33.79
56160;BME280;42043;46.052;13.612;2022-07-05T10:18:54;100329.00;;;35.33;33.15
56160;BME280;42043;46.052;13.612;2022-07-05T10:21:21;100330.59;;;35.58;31.97
56160;BME280;42043;46.052;13.612;2022-07-05T10:23:48;100326.72;;;35.35;31.82
56160;BME280;42043;46.052;13.612;2022-07-05T10:26:17;100326.28;;;35.20;32.55
56160;BME280;42043;46.052;13.612;2022-07-05T10:28:48;100324.97;;;34.93;31.22
56160;BME280;42043;46.052;13.612;2022-07-05T10:31:18;100322.94;;;35.92;31.56
56160;BME280;42043;46.052;13.612;2022-07-05T10:33:45;100321.22;;;35.88;31.27
56160;BME280;42043;46.052;13.612;2022-07-05T10:36:13;100314.41;;;35.69;31.00
56160;BME280;42043;46.052;13.612;2022-07-05T10:38:45;100313.31;;;36.27;32.31
56160;BME280;42043;46.052;13.612;2022-07-05T10:41:14;100308.75;;;35.13;30.60
56160;BME280;42043;46.052;13.612;2022-07-05T10:43:53;100316.00;;;36.11;30.54
56160;BME280;42043;46.052;13.612;2022-07-05T10:46:33;100304.66;;;36.72;29.53
56160;BME280;42043;46.052;13.612;2022-07-05T10:49:10;100304.25;;;35.86;29.40
56160;BME280;42043;46.052;13.612;2022-07-05T10:51:36;100307.13;;;33.66;33.04
56160;BME280;42043;46.052;13.612;2022-07-05T10:54:03;100302.47;;;33.07;34.25
56160;BME280;42043;46.052;13.612;2022-07-05T10:56:29;100308.25;;;34.98;33.01
56160;BME280;42043;46.052;13.612;2022-07-05T10:59:05;100300.16;;;36.08;29.59
56160;BME280;42043;46.052;13.612;2022-07-05T11:01:36;100303.66;;;36.80;28.31
56160;BME280;42043;46.052;13.612;2022-07-05T11:06:48;100297.66;;;36.02;28.76
56160;BME280;42043;46.052;13.612;2022-07-05T11:09:18;100288.66;;;35.90;28.97
56160;BME280;42043;46.052;13.612;2022-07-05T11:12:02;100284.00;;;36.66;27.52
56160;BME280;42043;46.052;13.612;2022-07-05T11:14:31;100285.28;;;37.36;27.23
56160;BME280;42043;46.052;13.612;2022-07-05T11:17:17;100284.38;;;37.86;27.81
56160;BME280;42043;46.052;13.612;2022-07-05T11:22:23;100278.47;;;35.25;30.76
56160;BME280;42043;46.052;13.612;2022-07-05T11:24:50;100268.34;;;33.89;32.03
56160;BME280;42043;46.052;13.612;2022-07-05T11:27:16;100271.03;;;35.01;31.65
56160;BME280;42043;46.052;13.612;2022-07-05T11:32:10;100266.16;;;37.62;28.18
56160;BME280;42043;46.052;13.612;2022-07-05T11:34:39;100267.28;;;36.91;28.79
56160;BME280;42043;46.052;13.612;2022-07-05T11:37:25;100273.31;;;37.47;27.98
56160;BME280;42043;46.052;13.612;2022-07-05T11:42:46;100277.44;;;34.81;31.46
56160;BME280;42043;46.052;13.612;2022-07-05T11:45:13;100280.66;;;34.95;32.38
56160;BME280;42043;46.052;13.612;2022-07-05T11:47:39;100266.47;;;36.42;30.82
56160;BME280;42043;46.052;13.612;2022-07-05T11:50:06;100271.34;;;37.48;28.25
56160;BME280;42043;46.052;13.612;2022-07-05T11:52:34;100270.88;;;35.87;29.32
56160;BME280;42043;46.052;13.612;2022-07-05T11:55:10;100267.56;;;34.67;31.03
56160;BME280;42043;46.052;13.612;2022-07-05T11:57:38;100259.09;;;35.22;30.20
56160;BME280;42043;46.052;13.612;2022-07-05T12:00:28;100259.34;;;34.92;30.83
56160;BME280;42043;46.052;13.612;2022-07-05T12:02:54;100257.63;;;34.29;32.53
56160;BME280;42043;46.052;13.612;2022-07-05T12:05:20;100257.16;;;34.15;32.62
56160;BME280;42043;46.052;13.612;2022-07-05T12:07:50;100254.03;;;33.83;33.33
56160;BME280;42043;46.052;13.612;2022-07-05T12:10:17;100250.28;;;33.46;33.87
56160;BME280;42043;46.052;13.612;2022-07-05T12:13:06;100257.91;;;33.19;35.09
56160;BME280;42043;46.052;13.612;2022-07-05T12:15:35;100270.13;;;32.83;34.61
56160;BME280;42043;46.052;13.612;2022-07-05T12:18:04;100270.31;;;32.78;34.96
56160;BME280;42043;46.052;13.612;2022-07-05T12:20:32;100281.41;;;34.13;33.20
56160;BME280;42043;46.052;13.612;2022-07-05T12:23:00;100303.09;;;34.39;33.67
56160;BME280;42043;46.052;13.612;2022-07-05T12:25:28;100309.31;;;34.48;34.11
56160;BME280;42043;46.052;13.612;2022-07-05T12:27:55;100318.81;;;32.13;38.25
56160;BME280;42043;46.052;13.612;2022-07-05T12:30:22;100294.69;;;30.83;41.15
56160;BME280;42043;46.052;13.612;2022-07-05T12:33:08;100305.88;;;29.83;46.18
56160;BME280;42043;46.052;13.612;2022-07-05T12:35:47;100315.31;;;29.49;44.54
56160;BME280;42043;46.052;13.612;2022-07-05T12:38:15;100319.44;;;29.05;45.85
56160;BME280;42043;46.052;13.612;2022-07-05T12:40:46;100329.78;;;28.61;48.42
56160;BME280;42043;46.052;13.612;2022-07-05T12:43:14;100327.97;;;28.38;48.63
56160;BME280;42043;46.052;13.612;2022-07-05T12:45:42;100336.13;;;28.57;47.77
56160;BME280;42043;46.052;13.612;2022-07-05T12:48:09;100341.91;;;29.29;44.37
56160;BME280;42043;46.052;13.612;2022-07-05T12:50:49;100343.78;;;29.29;45.13
56160;BME280;42043;46.052;13.612;2022-07-05T12:53:16;100366.09;;;29.17;48.44
56160;BME280;42043;46.052;13.612;2022-07-05T12:58:55;100401.13;;;28.01;62.76
56160;BME280;42043;46.052;13.612;2022-07-05T13:01:32;100409.41;;;27.48;66.47